Time;durP1;ratioP1;P1;durP2;ratioP2;P2;SDS_P1;SDS_P2;PMS_P1;PMS_P2;Temp;Humidity;BMP_temperature;BMP_pressure;BME280_temperature;BME280_humidity;BME280_pressure;Samples;Min_cycle;Max_cycle;Signal;HPM_P1;HPM_P2
2021/11/08 00:00:00;;;;;;;14.23;5.03;;;7.20;99.90;;;;;;5069076;28;20033;-70
2021/11/08 00:02:27;;;;;;;12.40;5.75;;;7.10;99.90;;;;;;5069833;28;20064;-70
2021/11/08 00:04:53;;;;;;;11.38;5.55;;;7.10;99.90;;;;;;5048280;28;20061;-70
2021/11/08 00:07:19;;;;;;;13.60;5.18;;;7.10;99.90;;;;;;5048479;28;20065;-70
2021/11/08 00:09:45;;;;;;;14.90;4.95;;;7.10;99.90;;;;;;5049517;28;20080;-70
2021/11/08 00:12:12;;;;;;;11.45;4.80;;;7.00;99.90;;;;;;5048810;28;20052;-70
2021/11/08 00:14:39;;;;;;;15.98;5.47;;;7.00;99.90;;;;;;5049256;28;20036;-70
2021/11/08 00:17:13;;;;;;;10.20;5.25;;;7.00;99.90;;;;;;5049436;28;20382;-70
2021/11/08 00:22:14;;;;;;;21.52;6.45;;;7.10;99.90;;;;;;5049795;28;20024;-70
2021/11/08 00:24:42;;;;;;;14.10;5.00;;;7.20;99.90;;;;;;5049354;28;20029;-70
2021/11/08 00:27:08;;;;;;;13.45;6.13;;;7.10;99.90;;;;;;5036051;28;20033;-70
2021/11/08 00:29:34;;;;;;;13.93;6.13;;;7.10;99.90;;;;;;5051697;28;20032;-70
2021/11/08 00:32:01;;;;;;;10.43;5.15;;;7.10;99.90;;;;;;5049768;28;20159;-70
2021/11/08 00:34:27;;;;;;;12.98;5.38;;;7.00;99.90;;;;;;5050379;28;20060;-70
2021/11/08 00:36:53;;;;;;;11.45;5.10;;;6.90;99.90;;;;;;5049423;28;20454;-68
2021/11/08 00:39:19;;;;;;;9.68;5.03;;;6.80;99.90;;;;;;5051756;28;20148;-70
2021/11/08 00:41:45;;;;;;;16.30;5.40;;;6.70;99.90;;;;;;5051341;28;20047;-70
2021/11/08 00:44:11;;;;;;;12.90;5.75;;;6.60;99.90;;;;;;5050232;28;20044;-70
2021/11/08 00:46:37;;;;;;;10.98;5.15;;;6.50;99.90;;;;;;5051725;28;20036;-70
2021/11/08 00:49:03;;;;;;;13.57;5.13;;;6.50;99.90;;;;;;5050744;28;20107;-70
2021/11/08 00:51:28;;;;;;;16.05;5.55;;;6.40;99.90;;;;;;5051443;28;20104;-69
2021/11/08 00:53:54;;;;;;;12.35;5.25;;;6.30;99.90;;;;;;5050516;28;20367;-69
2021/11/08 00:56:22;;;;;;;8.90;4.93;;;6.20;99.90;;;;;;5051362;28;20029;-70
2021/11/08 00:58:49;;;;;;;10.27;4.88;;;6.20;99.90;;;;;;5055324;28;20028;-70
2021/11/08 01:01:22;;;;;;;11.65;6.32;;;6.00;99.90;;;;;;5055370;28;20031;-70
2021/11/08 01:03:49;;;;;;;21.88;7.07;;;6.00;99.90;;;;;;5055493;28;20501;-69
2021/11/08 01:06:17;;;;;;;16.95;7.68;;;5.80;99.90;;;;;;5054483;28;20098;-70
2021/11/08 01:08:43;;;;;;;12.88;6.25;;;5.80;99.90;;;;;;5055339;28;20032;-70
2021/11/08 01:11:10;;;;;;;14.45;6.38;;;5.70;99.90;;;;;;5054492;28;20091;-69
2021/11/08 01:13:36;;;;;;;15.73;6.97;;;5.60;99.90;;;;;;5055345;28;20029;-70
2021/11/08 01:16:03;;;;;;;14.70;7.10;;;5.50;99.90;;;;;;5054154;28;20068;-69
2021/11/08 01:18:29;;;;;;;14.13;6.93;;;5.40;99.90;;;;;;5054963;28;20028;-69
2021/11/08 01:20:55;;;;;;;16.30;7.88;;;5.40;99.90;;;;;;5054123;28;20101;-68
2021/11/08 01:23:25;;;;;;;13.48;6.95;;;5.30;99.90;;;;;;5053545;28;20025;-69
2021/11/08 01:26:05;;;;;;;16.20;7.32;;;5.30;99.90;;;;;;5054851;28;20037;-68
2021/11/08 01:28:39;;;;;;;17.05;7.00;;;5.20;99.90;;;;;;5055020;28;20036;-69
2021/11/08 01:31:07;;;;;;;14.15;6.60;;;5.20;99.90;;;;;;5054255;28;20028;-68
2021/11/08 01:33:33;;;;;;;14.93;6.90;;;5.10;99.90;;;;;;5054530;28;20025;-69
2021/11/08 01:38:44;;;;;;;15.95;8.15;;;5.00;99.90;;;;;;5054686;28;20066;-69
2021/11/08 01:41:13;;;;;;;18.60;6.85;;;4.90;99.90;;;;;;5053905;28;20025;-69
2021/11/08 01:43:41;;;;;;;12.68;6.85;;;4.80;99.90;;;;;;5054786;28;20484;-68
2021/11/08 01:46:07;;;;;;;12.07;6.90;;;4.70;99.90;;;;;;5053915;28;20048;-68
2021/11/08 01:48:33;;;;;;;15.38;7.25;;;4.60;99.90;;;;;;5053742;28;20013;-69
2021/11/08 01:50:59;;;;;;;21.55;8.48;;;4.50;99.90;;;;;;5053587;28;20465;-68
2021/11/08 01:53:25;;;;;;;26.80;10.15;;;4.50;99.90;;;;;;5051986;28;20066;-69
2021/11/08 01:55:52;;;;;;;20.75;7.90;;;4.50;99.90;;;;;;5055178;28;20035;-69
2021/11/08 01:58:24;;;;;;;19.90;8.13;;;4.50;99.90;;;;;;5055173;28;20446;-68
2021/11/08 02:00:50;;;;;;;22.75;7.82;;;4.50;99.90;;;;;;5054693;28;20028;-68
2021/11/08 02:03:17;;;;;;;16.17;7.78;;;4.50;99.90;;;;;;5054396;28;20025;-68
2021/11/08 02:05:45;;;;;;;19.73;7.57;;;4.50;99.90;;;;;;5054916;28;20083;-69
2021/11/08 02:08:11;;;;;;;19.90;8.43;;;4.50;99.90;;;;;;5053844;28;20033;-68
2021/11/08 02:10:37;;;;;;;22.08;8.00;;;4.50;99.90;;;;;;5054722;28;20435;-68
2021/11/08 02:13:04;;;;;;;22.08;7.22;;;4.50;99.90;;;;;;5053896;28;20024;-68
2021/11/08 02:15:31;;;;;;;17.65;7.35;;;4.50;99.90;;;;;;5054774;28;20029;-68
2021/11/08 02:17:56;;;;;;;19.25;7.32;;;4.50;99.90;;;;;;5053881;28;20025;-68
2021/11/08 02:20:26;;;;;;;20.52;7.43;;;4.50;99.90;;;;;;5054551;28;20508;-68
2021/11/08 02:22:55;;;;;;;18.95;7.70;;;4.40;99.90;;;;;;5054132;28;20043;-67
2021/11/08 02:25:22;;;;;;;23.42;7.30;;;4.40;99.90;;;;;;5054321;28;20357;-68
2021/11/08 02:27:49;;;;;;;23.10;7.15;;;4.30;99.90;;;;;;5054039;28;20036;-68
2021/11/08 02:30:16;;;;;;;15.82;6.88;;;4.30;99.90;;;;;;5053681;28;20116;-68
2021/11/08 02:32:43;;;;;;;17.70;6.55;;;4.30;99.90;;;;;;5054156;28;20029;-68
2021/11/08 02:35:15;;;;;;;19.02;6.80;;;4.20;99.90;;;;;;5053721;28;20032;-68
2021/11/08 02:37:40;;;;;;;16.83;6.90;;;4.10;99.90;;;;;;5054216;28;20024;-67
2021/11/08 02:40:13;;;;;;;20.38;7.07;;;4.10;99.90;;;;;;5053431;28;20438;-67
2021/11/08 02:42:39;;;;;;;29.85;7.88;;;4.10;99.90;;;;;;5054041;28;20037;-67
2021/11/08 02:45:07;;;;;;;23.50;7.20;;;4.10;99.90;;;;;;5053072;28;20455;-67
2021/11/08 02:47:33;;;;;;;20.25;8.90;;;4.10;99.90;;;;;;5053953;28;20052;-67
2021/11/08 02:50:01;;;;;;;28.67;7.63;;;4.10;99.90;;;;;;5053343;28;20052;-67
2021/11/08 02:52:27;;;;;;;20.90;7.22;;;4.10;99.90;;;;;;5053810;28;20046;-67
2021/11/08 02:54:53;;;;;;;16.83;6.65;;;4.10;99.90;;;;;;5053209;28;20033;-67
2021/11/08 02:57:23;;;;;;;22.77;7.75;;;4.10;99.90;;;;;;5053915;28;20021;-67
2021/11/08 02:59:49;;;;;;;20.42;7.72;;;4.00;99.90;;;;;;5053652;28;20024;-67
2021/11/08 03:02:16;;;;;;;20.45;6.70;;;4.00;99.90;;;;;;5053029;28;20033;-67
2021/11/08 03:04:44;;;;;;;27.42;6.95;;;4.00;99.90;;;;;;5053492;28;20028;-67
2021/11/08 03:07:11;;;;;;;23.33;6.97;;;4.00;99.90;;;;;;5052749;28;20369;-67
2021/11/08 03:09:52;;;;;;;16.75;6.30;;;4.00;99.90;;;;;;5053587;28;20020;-67
2021/11/08 03:12:22;;;;;;;16.98;7.47;;;3.90;99.90;;;;;;5052851;28;20036;-66
2021/11/08 03:17:40;;;;;;;19.85;6.57;;;3.90;99.90;;;;;;5053162;28;20088;-67
2021/11/08 03:20:11;;;;;;;17.58;7.20;;;3.90;99.90;;;;;;5052111;28;20024;-66
2021/11/08 03:22:37;;;;;;;20.58;6.95;;;3.80;99.90;;;;;;5053373;28;20074;-67
2021/11/08 03:25:25;;;;;;;24.67;6.78;;;3.80;99.90;;;;;;5052556;28;20104;-67
2021/11/08 03:27:55;;;;;;;15.45;6.88;;;3.70;99.90;;;;;;5053226;28;20052;-67
2021/11/08 03:30:37;;;;;;;18.23;7.25;;;3.70;99.90;;;;;;5053138;28;20067;-66
2021/11/08 03:33:04;;;;;;;22.13;7.60;;;3.60;99.90;;;;;;5052511;28;20112;-67
2021/11/08 03:35:31;;;;;;;22.95;7.40;;;3.60;99.90;;;;;;5053010;28;20420;-67
2021/11/08 03:37:57;;;;;;;18.60;7.03;;;3.60;99.90;;;;;;5052207;28;20112;-66
2021/11/08 03:40:27;;;;;;;24.10;7.05;;;3.60;99.90;;;;;;5052512;28;20021;-67
2021/11/08 03:42:55;;;;;;;16.35;7.53;;;3.60;99.90;;;;;;5052875;28;20025;-67
2021/11/08 03:45:22;;;;;;;17.05;7.50;;;3.60;99.90;;;;;;5052294;28;20048;-67
2021/11/08 03:47:49;;;;;;;22.98;8.00;;;3.60;99.90;;;;;;5051923;28;20036;-67
2021/11/08 03:50:15;;;;;;;23.60;7.90;;;3.50;99.90;;;;;;5050954;28;20025;-67
2021/11/08 03:52:41;;;;;;;26.17;8.13;;;3.60;99.90;;;;;;5051948;28;20074;-67
2021/11/08 03:55:10;;;;;;;17.40;6.88;;;3.60;99.90;;;;;;5051279;28;20032;-67
2021/11/08 03:57:37;;;;;;;27.83;7.75;;;3.50;99.90;;;;;;5051899;28;20036;-68
2021/11/08 04:00:06;;;;;;;19.58;7.35;;;3.50;99.90;;;;;;5051167;28;20020;-67
2021/11/08 04:02:31;;;;;;;19.75;7.28;;;3.40;99.90;;;;;;5051682;28;20116;-67
2021/11/08 04:04:59;;;;;;;18.42;7.38;;;3.30;99.90;;;;;;5051020;28;20112;-66
2021/11/08 04:07:25;;;;;;;20.77;7.18;;;3.20;99.90;;;;;;5051800;28;20032;-67
2021/11/08 04:09:51;;;;;;;16.77;7.40;;;3.10;99.90;;;;;;5051596;28;20020;-66
2021/11/08 04:12:16;;;;;;;28.50;9.18;;;3.10;99.90;;;;;;5050897;28;20474;-67
2021/11/08 04:14:43;;;;;;;30.23;9.52;;;3.00;99.90;;;;;;5051382;28;20037;-67
2021/11/08 04:17:10;;;;;;;20.13;8.77;;;3.10;99.90;;;;;;5051001;28;20104;-66
2021/11/08 04:19:35;;;;;;;31.85;9.45;;;3.10;99.90;;;;;;5051464;28;20079;-66
2021/11/08 04:22:03;;;;;;;31.20;8.93;;;3.20;99.90;;;;;;5050932;28;20024;-66
2021/11/08 04:24:30;;;;;;;22.38;8.15;;;3.20;99.90;;;;;;5051425;28;20075;-66
2021/11/08 04:26:55;;;;;;;27.25;9.18;;;3.20;99.90;;;;;;5051340;28;20078;-68
2021/11/08 04:29:23;;;;;;;25.63;8.15;;;3.20;99.90;;;;;;5050996;28;20029;-66
2021/11/08 04:31:51;;;;;;;12.57;7.18;;;3.10;99.90;;;;;;5050169;28;20013;-66
2021/11/08 04:34:27;;;;;;;15.43;6.50;;;3.00;99.90;;;;;;5050741;28;20338;-67
2021/11/08 04:40:04;;;;;;;29.00;8.55;;;2.90;99.90;;;;;;5051324;28;20484;-66
2021/11/08 04:42:47;;;;;;;;;;;;;;;;;;;;;
2021/11/08 04:50:27;;;;;;;21.75;7.88;;;2.70;99.90;;;;;;5051467;28;20043;-66
2021/11/08 04:53:15;;;;;;;17.92;7.53;;;2.60;99.90;;;;;;5052218;28;20400;-66
2021/11/08 05:23:16;;;;;;;32.65;11.13;;;2.20;99.90;;;;;;5050928;28;20071;-66
2021/11/08 05:30:56;;;;;;;29.17;10.05;;;2.40;99.90;;;;;;5051663;28;20052;-67
2021/11/08 05:33:21;;;;;;;37.88;11.32;;;2.50;99.90;;;;;;5051118;28;20048;-67
2021/11/08 05:35:47;;;;;;;32.47;11.07;;;2.60;99.90;;;;;;5050889;28;20032;-67
2021/11/08 05:38:13;;;;;;;26.25;10.02;;;2.60;99.90;;;;;;5049707;28;20102;-66
2021/11/08 05:40:39;;;;;;;25.63;8.90;;;2.60;99.90;;;;;;5050239;28;20024;-67
2021/11/08 05:43:07;;;;;;;23.23;9.43;;;2.60;99.90;;;;;;5050040;28;20079;-67
2021/11/08 05:45:38;;;;;;;25.25;9.73;;;2.60;99.90;;;;;;5051062;28;20079;-67
2021/11/08 05:48:05;;;;;;;36.63;10.95;;;2.50;99.90;;;;;;5053259;28;20021;-66
2021/11/08 05:50:33;;;;;;;26.27;9.88;;;2.50;99.90;;;;;;5050933;28;20021;-67
2021/11/08 05:52:59;;;;;;;22.33;9.65;;;2.50;99.90;;;;;;5053329;28;20027;-66
2021/11/08 05:55:55;;;;;;;22.58;9.05;;;2.50;99.90;;;;;;5053398;28;20037;-66
2021/11/08 06:50:22;;;;;;;29.35;11.25;;;2.40;99.90;;;;;;5052465;28;20067;-67
2021/11/08 06:52:50;;;;;;;28.00;10.35;;;2.40;99.90;;;;;;5053279;28;20028;-64
2021/11/08 06:55:17;;;;;;;42.28;12.38;;;2.40;99.90;;;;;;5052435;28;20446;-67
2021/11/08 06:57:47;;;;;;;39.40;12.27;;;2.40;99.90;;;;;;5053747;28;20449;-68
2021/11/08 07:00:16;;;;;;;43.38;13.07;;;2.50;99.90;;;;;;5052336;28;20025;-67
2021/11/08 07:02:42;;;;;;;33.90;11.47;;;2.50;99.90;;;;;;5052999;28;20040;-67
2021/11/08 07:05:09;;;;;;;31.90;12.55;;;2.60;99.90;;;;;;5052571;28;20115;-67
2021/11/08 07:07:34;;;;;;;28.25;11.90;;;2.50;99.90;;;;;;5052946;28;20087;-68
2021/11/08 07:10:00;;;;;;;30.20;11.40;;;2.60;99.90;;;;;;5053023;28;20462;-68
2021/11/08 07:12:26;;;;;;;30.38;11.80;;;2.50;99.90;;;;;;5052077;28;20071;-67
2021/11/08 07:14:53;;;;;;;33.92;13.00;;;2.50;99.90;;;;;;5052807;28;20028;-68
2021/11/08 07:17:20;;;;;;;36.67;15.70;;;2.50;99.90;;;;;;5051923;28;20029;-76
2021/11/08 07:19:46;;;;;;;32.40;14.38;;;2.50;99.90;;;;;;5052580;28;20063;-83
2021/11/08 07:22:11;;;;;;;41.75;14.35;;;2.50;99.90;;;;;;5051987;28;20029;-79
2021/11/08 07:24:38;;;;;;;41.20;14.77;;;2.60;99.90;;;;;;5052478;28;20179;-80
2021/11/08 07:27:04;;;;;;;34.45;13.75;;;2.60;99.90;;;;;;5050459;28;20048;-75
2021/11/08 07:29:33;;;;;;;38.60;13.95;;;2.70;99.90;;;;;;5052570;28;20520;-86
2021/11/08 07:31:58;;;;;;;39.92;14.73;;;2.70;99.90;;;;;;5052405;28;20036;-71
2021/11/08 07:34:24;;;;;;;36.83;14.88;;;2.80;99.90;;;;;;5051981;28;20028;-72
2021/11/08 07:36:50;;;;;;;32.10;13.70;;;2.80;99.90;;;;;;5052496;28;20504;-72
2021/11/08 07:39:17;;;;;;;40.70;14.63;;;2.90;99.90;;;;;;5052171;28;20481;-72
2021/11/08 07:41:42;;;;;;;35.50;14.15;;;3.00;99.90;;;;;;5052424;28;20425;-72
2021/11/08 07:44:09;;;;;;;38.28;15.40;;;3.00;99.90;;;;;;5046899;28;20029;-71
2021/11/08 07:46:36;;;;;;;27.80;13.30;;;3.10;99.90;;;;;;5052279;28;20044;-72
2021/11/08 07:49:02;;;;;;;28.77;12.80;;;3.20;99.90;;;;;;5052209;28;20116;-71
2021/11/08 07:51:28;;;;;;;42.42;18.10;;;3.20;99.90;;;;;;5051380;28;20112;-71
2021/11/08 07:53:54;;;;;;;45.50;20.30;;;3.30;99.90;;;;;;5050941;28;20120;-72
2021/11/08 07:56:20;;;;;;;49.63;20.52;;;3.40;99.90;;;;;;5050616;28;20028;-71
2021/11/08 07:58:47;;;;;;;48.92;21.77;;;3.60;99.90;;;;;;5052060;28;20031;-72
2021/11/08 08:01:13;;;;;;;51.97;20.48;;;3.70;99.90;;;;;;5050993;28;20464;-71
2021/11/08 08:03:39;;;;;;;40.95;19.38;;;3.90;99.90;;;;;;5051498;28;20108;-72
2021/11/08 08:06:07;;;;;;;36.17;17.67;;;3.90;99.90;;;;;;5051142;28;20440;-70
2021/11/08 08:08:35;;;;;;;39.78;16.52;;;4.10;99.90;;;;;;5051479;28;20082;-72
2021/11/08 08:11:03;;;;;;;41.78;16.30;;;4.10;99.90;;;;;;5050673;28;20113;-71
2021/11/08 08:13:30;;;;;;;32.63;15.05;;;4.20;99.90;;;;;;5050008;28;20025;-72
2021/11/08 08:16:00;;;;;;;23.73;14.15;;;4.20;99.90;;;;;;5051937;28;20083;-71
2021/11/08 08:18:29;;;;;;;28.55;15.00;;;4.20;99.90;;;;;;5050871;28;20110;-71
2021/11/08 08:20:55;;;;;;;39.13;15.20;;;4.30;99.90;;;;;;5051856;28;20036;-71
2021/11/08 08:23:22;;;;;;;30.75;15.27;;;4.30;99.90;;;;;;5050514;28;20052;-71
2021/11/08 08:25:48;;;;;;;36.47;16.05;;;4.40;99.90;;;;;;5051663;28;20033;-71
2021/11/08 08:28:14;;;;;;;37.22;16.65;;;4.40;99.90;;;;;;5050922;28;20116;-71
2021/11/08 08:30:40;;;;;;;31.15;16.27;;;4.50;99.90;;;;;;5051505;28;20486;-71
2021/11/08 08:33:07;;;;;;;39.42;16.98;;;4.50;99.90;;;;;;5049948;28;20029;-71
2021/11/08 08:35:39;;;;;;;36.90;16.98;;;4.60;99.90;;;;;;5050422;28;20362;-71
2021/11/08 08:38:11;;;;;;;38.88;16.17;;;4.70;99.90;;;;;;5051278;28;20083;-70
2021/11/08 08:40:37;;;;;;;28.80;15.10;;;4.80;99.90;;;;;;5051388;28;20466;-71
2021/11/08 08:43:05;;;;;;;36.00;14.88;;;4.90;99.90;;;;;;5047329;28;20029;-71
2021/11/08 08:45:32;;;;;;;32.47;13.25;;;5.00;99.90;;;;;;5050598;28;20095;-71
2021/11/08 08:47:59;;;;;;;38.30;13.32;;;5.20;99.90;;;;;;5050357;28;20025;-71
2021/11/08 08:50:25;;;;;;;28.67;11.80;;;5.40;99.90;;;;;;5050820;28;20037;-71
2021/11/08 08:52:52;;;;;;;20.38;10.52;;;5.50;99.90;;;;;;5050042;28;20076;-71
2021/11/08 08:55:18;;;;;;;23.83;11.20;;;5.70;99.90;;;;;;5050271;28;20371;-71
2021/11/08 08:57:45;;;;;;;24.60;10.55;;;5.80;99.90;;;;;;5050710;28;20017;-71
2021/11/08 09:00:15;;;;;;;28.33;11.88;;;5.90;99.90;;;;;;5050105;28;20556;-71
2021/11/08 09:02:41;;;;;;;28.33;11.55;;;6.00;99.90;;;;;;5050873;28;20025;-71
2021/11/08 09:05:07;;;;;;;28.27;11.63;;;6.10;99.90;;;;;;5050544;28;20041;-70
2021/11/08 09:07:39;;;;;;;32.33;13.77;;;6.30;99.90;;;;;;5049708;28;20036;-70
2021/11/08 09:10:06;;;;;;;28.13;12.93;;;6.40;99.90;;;;;;5044646;28;20052;-72
2021/11/08 09:12:33;;;;;;;32.22;12.93;;;6.50;99.90;;;;;;5048996;28;20114;-70
2021/11/08 09:14:58;;;;;;;19.73;11.20;;;6.50;99.90;;;;;;5050855;28;20037;-70
2021/11/08 09:17:25;;;;;;;26.45;9.43;;;6.50;99.90;;;;;;5049813;28;20485;-70
2021/11/08 09:19:51;;;;;;;24.05;10.07;;;6.60;99.90;;;;;;5049433;28;20029;-70
2021/11/08 09:22:17;;;;;;;25.75;11.75;;;6.70;99.90;;;;;;5053581;28;20029;-70
2021/11/08 09:24:43;;;;;;;27.98;11.40;;;6.80;99.90;;;;;;5054646;28;20108;-70
2021/11/08 09:27:10;;;;;;;21.60;11.38;;;6.80;99.90;;;;;;5053850;28;20029;-71
2021/11/08 09:29:36;;;;;;;27.63;12.40;;;6.80;99.90;;;;;;5054884;28;20053;-73
2021/11/08 09:32:03;;;;;;;29.00;12.63;;;6.90;99.90;;;;;;5052789;28;20091;-71
2021/11/08 09:34:29;;;;;;;29.25;12.50;;;6.90;99.90;;;;;;5053203;28;20025;-70
2021/11/08 09:36:58;;;;;;;23.05;9.93;;;7.00;99.90;;;;;;5054421;28;20032;-70
2021/11/08 09:39:27;;;;;;;25.45;11.05;;;7.10;99.90;;;;;;5053210;28;20132;-70
2021/11/08 09:42:03;;;;;;;32.78;11.15;;;7.20;99.90;;;;;;5054312;28;20410;-70
2021/11/08 09:44:29;;;;;;;23.58;9.07;;;7.30;99.90;;;;;;5052017;28;20052;-70
2021/11/08 09:46:57;;;;;;;24.00;10.02;;;7.40;99.90;;;;;;5054316;28;20056;-70
2021/11/08 09:49:23;;;;;;;26.88;10.73;;;7.60;99.90;;;;;;5053004;28;20111;-70
2021/11/08 09:51:51;;;;;;;21.08;9.38;;;7.80;99.90;;;;;;5054135;28;20029;-70
2021/11/08 09:54:19;;;;;;;23.92;8.43;;;7.80;99.90;;;;;;5053411;28;20067;-70
2021/11/08 09:56:46;;;;;;;27.92;8.77;;;8.00;99.90;;;;;;5054061;28;20029;-70
2021/11/08 09:59:13;;;;;;;24.42;8.10;;;8.00;99.90;;;;;;5053053;28;20466;-70
2021/11/08 10:01:42;;;;;;;23.67;8.85;;;8.10;99.90;;;;;;5054439;28;20424;-70
2021/11/08 10:04:14;;;;;;;21.15;7.90;;;8.10;99.90;;;;;;5053860;28;20029;-71
2021/11/08 10:06:41;;;;;;;25.98;8.70;;;8.10;99.90;;;;;;5053381;28;20036;-70
2021/11/08 10:09:09;;;;;;;19.23;7.47;;;8.30;99.90;;;;;;5053142;28;20044;-70
2021/11/08 10:11:39;;;;;;;30.00;9.35;;;8.30;99.90;;;;;;5053313;28;20025;-70
2021/11/08 10:14:07;;;;;;;25.38;9.52;;;8.40;99.90;;;;;;5052552;28;20032;-70
2021/11/08 10:16:35;;;;;;;38.13;10.30;;;8.50;99.90;;;;;;5052029;28;20505;-70
2021/11/08 10:19:05;;;;;;;27.23;8.98;;;8.60;99.90;;;;;;5034879;28;20104;-71
2021/11/08 10:21:42;;;;;;;22.15;8.40;;;8.80;99.90;;;;;;5052157;28;20564;-71
2021/11/08 10:24:14;;;;;;;21.48;8.55;;;9.00;99.90;;;;;;5048566;28;20039;-71
2021/11/08 10:26:41;;;;;;;19.50;8.93;;;9.30;99.90;;;;;;5053485;28;20033;-71
2021/11/08 10:29:11;;;;;;;20.23;7.63;;;9.40;99.90;;;;;;5053285;28;20394;-71
2021/11/08 10:31:49;;;;;;;22.45;7.25;;;9.40;99.90;;;;;;5052806;28;20052;-72
2021/11/08 10:34:16;;;;;;;24.63;7.70;;;9.40;99.90;;;;;;5052488;28;20398;-71
2021/11/08 10:36:46;;;;;;;19.05;6.85;;;9.40;99.90;;;;;;5052899;28;20021;-71
2021/11/08 10:39:13;;;;;;;26.58;8.13;;;9.50;99.90;;;;;;5051999;28;20040;-70
2021/11/08 10:41:43;;;;;;;20.67;7.38;;;9.50;99.90;;;;;;5052906;28;20155;-70
2021/11/08 10:44:16;;;;;;;21.70;7.25;;;9.30;99.90;;;;;;5051582;28;20033;-70
2021/11/08 10:46:46;;;;;;;15.82;6.72;;;9.20;99.90;;;;;;5052207;28;20474;-71
2021/11/08 10:49:21;;;;;;;19.80;6.97;;;9.20;99.90;;;;;;5052704;28;20078;-70
2021/11/08 10:51:53;;;;;;;25.40;7.97;;;9.10;99.90;;;;;;5051868;28;20417;-71
2021/11/08 10:54:36;;;;;;;21.75;6.97;;;9.00;99.90;;;;;;5052212;28;20021;-70
2021/11/08 10:57:05;;;;;;;16.70;6.07;;;9.00;99.90;;;;;;5052757;28;20032;-71
2021/11/08 10:59:42;;;;;;;21.83;6.55;;;9.10;99.90;;;;;;5050819;28;20702;-70
2021/11/08 11:02:10;;;;;;;19.92;4.95;;;9.10;99.90;;;;;;5052260;28;20037;-71
2021/11/08 11:04:43;;;;;;;19.48;5.00;;;9.10;99.90;;;;;;5052242;28;20120;-70
2021/11/08 11:07:21;;;;;;;19.58;6.25;;;9.10;99.90;;;;;;5052337;28;20466;-70
2021/11/08 11:09:48;;;;;;;16.17;6.10;;;9.20;99.90;;;;;;5052374;28;20052;-71
2021/11/08 11:12:22;;;;;;;24.70;7.30;;;9.30;99.90;;;;;;5052323;28;20028;-70
2021/11/08 11:14:50;;;;;;;16.52;5.55;;;9.40;99.90;;;;;;5052256;28;20478;-70
2021/11/08 11:17:25;;;;;;;21.73;6.32;;;9.40;99.90;;;;;;5051643;28;20092;-71
2021/11/08 11:20:08;;;;;;;17.38;5.88;;;9.40;99.90;;;;;;5052086;28;20040;-71
2021/11/08 11:22:36;;;;;;;20.73;6.05;;;9.40;99.90;;;;;;5051137;28;20485;-72
2021/11/08 11:25:06;;;;;;;18.02;4.88;;;9.30;99.90;;;;;;5052143;28;20041;-71
2021/11/08 11:27:38;;;;;;;21.30;6.13;;;9.20;99.90;;;;;;5051657;28;20120;-71
2021/11/08 11:30:36;;;;;;;19.25;5.40;;;9.20;99.90;;;;;;5052184;28;20033;-72
2021/11/08 11:33:06;;;;;;;21.02;5.75;;;9.10;99.90;;;;;;5047361;28;20497;-70
2021/11/08 11:35:49;;;;;;;18.65;5.18;;;9.00;99.90;;;;;;5051217;28;20029;-71
2021/11/08 11:38:26;;;;;;;15.23;4.80;;;8.80;99.90;;;;;;5051075;28;20146;-70
2021/11/08 11:41:03;;;;;;;19.65;4.95;;;8.70;99.90;;;;;;5051555;28;20037;-70
2021/11/08 11:43:32;;;;;;;23.27;5.03;;;8.70;99.90;;;;;;5050419;28;20033;-70
2021/11/08 11:45:59;;;;;;;19.40;5.75;;;8.70;99.90;;;;;;5051391;28;20045;-71
2021/11/08 11:48:28;;;;;;;14.65;4.68;;;8.70;99.90;;;;;;5051095;28;20032;-70
2021/11/08 11:50:55;;;;;;;14.85;4.05;;;8.80;99.90;;;;;;5051255;28;20032;-71
2021/11/08 11:53:23;;;;;;;14.82;4.65;;;9.00;99.90;;;;;;5050633;28;20103;-71
2021/11/08 11:55:49;;;;;;;15.85;5.45;;;9.10;99.90;;;;;;5051407;28;20037;-71
2021/11/08 11:58:17;;;;;;;17.27;4.28;;;9.20;99.90;;;;;;5051232;28;20029;-70
2021/11/08 12:00:44;;;;;;;19.17;4.63;;;9.30;99.90;;;;;;5050963;28;20033;-71
2021/11/08 12:03:11;;;;;;;18.65;5.20;;;9.30;99.90;;;;;;5051379;28;20051;-71
2021/11/08 12:05:37;;;;;;;27.70;5.10;;;9.40;99.90;;;;;;5049542;28;20116;-71
2021/11/08 12:08:07;;;;;;;15.68;4.82;;;9.40;99.90;;;;;;5051628;28;20060;-71
2021/11/08 12:10:33;;;;;;;14.27;4.00;;;9.50;99.90;;;;;;5043020;28;20470;-70
2021/11/08 12:12:59;;;;;;;19.88;4.65;;;9.50;99.90;;;;;;5050526;28;20028;-71
2021/11/08 12:15:32;;;;;;;21.63;5.05;;;9.50;99.90;;;;;;5039889;28;20529;-70
2021/11/08 12:18:09;;;;;;;17.55;4.35;;;9.50;99.90;;;;;;5039991;28;20070;-71
2021/11/08 12:20:43;;;;;;;24.10;4.85;;;9.60;99.90;;;;;;5031902;28;20125;-71
2021/11/08 12:23:18;;;;;;;14.52;4.40;;;9.60;99.90;;;;;;5047760;28;20032;-70
2021/11/08 12:25:45;;;;;;;19.50;4.32;;;9.60;99.90;;;;;;5048869;28;20025;-70
2021/11/08 12:28:16;;;;;;;17.48;4.82;;;9.60;99.90;;;;;;5050533;28;20378;-72
2021/11/08 12:30:50;;;;;;;20.80;4.70;;;9.70;99.90;;;;;;5051054;28;20029;-72
2021/11/08 12:33:29;;;;;;;16.30;5.50;;;9.70;99.90;;;;;;5051216;28;20029;-70
2021/11/08 12:36:05;;;;;;;15.25;4.63;;;9.80;99.90;;;;;;5049201;28;20032;-71
2021/11/08 12:38:34;;;;;;;16.45;5.00;;;9.70;99.90;;;;;;5041313;28;20429;-70
2021/11/08 12:41:15;;;;;;;14.43;4.10;;;9.80;99.90;;;;;;5046173;28;20047;-71
2021/11/08 12:43:50;;;;;;;15.10;3.22;;;9.90;99.90;;;;;;5049956;28;20025;-71
2021/11/08 12:46:21;;;;;;;14.25;3.33;;;10.80;99.90;;;;;;5033030;28;20083;-71
2021/11/08 12:48:48;;;;;;;19.20;4.13;;;10.80;99.90;;;;;;5031531;28;20030;-71
2021/11/08 12:51:21;;;;;;;11.80;3.40;;;11.50;99.90;;;;;;5038230;28;20032;-71
2021/11/08 12:53:59;;;;;;;15.43;4.03;;;12.10;99.90;;;;;;5052467;28;20033;-71
2021/11/08 12:56:34;;;;;;;19.88;3.67;;;12.70;97.00;;;;;;5033331;28;20029;-71
2021/11/08 12:59:12;;;;;;;14.38;3.92;;;13.10;94.90;;;;;;5035194;28;20457;-71
2021/11/08 13:01:40;;;;;;;14.77;4.00;;;13.10;93.80;;;;;;5034254;28;20602;-71
2021/11/08 13:04:08;;;;;;;23.75;3.95;;;13.30;93.00;;;;;;5044654;28;20095;-71
2021/11/08 13:06:36;;;;;;;11.90;3.42;;;12.70;93.00;;;;;;5035335;28;20115;-70
2021/11/08 13:09:08;;;;;;;16.50;4.13;;;12.40;94.20;;;;;;5054296;28;20028;-71
2021/11/08 13:11:51;;;;;;;14.57;3.42;;;12.20;93.60;;;;;;5053584;28;20499;-70
2021/11/08 13:14:34;;;;;;;15.05;4.00;;;12.00;94.10;;;;;;5052534;28;20083;-70
2021/11/08 13:17:26;;;;;;;14.98;3.42;;;11.80;94.80;;;;;;5055286;28;20032;-70
2021/11/08 13:20:04;;;;;;;8.98;2.70;;;11.70;95.00;;;;;;5054702;28;20037;-70
2021/11/08 13:22:37;;;;;;;12.15;3.40;;;11.60;95.20;;;;;;5053535;28;20056;-70
2021/11/08 13:25:08;;;;;;;14.48;3.45;;;11.60;95.30;;;;;;5054483;28;20037;-70
2021/11/08 13:27:35;;;;;;;15.80;3.67;;;11.50;95.80;;;;;;5053329;28;20040;-70
2021/11/08 13:30:05;;;;;;;17.13;3.85;;;11.50;96.30;;;;;;5054222;28;20052;-70
2021/11/08 13:32:32;;;;;;;15.27;3.40;;;11.50;95.60;;;;;;5053376;28;20547;-71
2021/11/08 13:35:13;;;;;;;17.08;3.50;;;11.50;95.20;;;;;;5054257;28;20064;-70
2021/11/08 13:37:41;;;;;;;12.30;2.78;;;11.60;94.70;;;;;;5034169;28;20036;-70
2021/11/08 13:40:16;;;;;;;10.00;2.67;;;11.70;94.70;;;;;;5043963;28;20033;-70
2021/11/08 13:42:41;;;;;;;10.20;2.90;;;11.80;94.10;;;;;;5052116;28;20032;-70
2021/11/08 13:45:07;;;;;;;15.73;3.80;;;11.90;93.70;;;;;;5053532;28;20052;-70
2021/11/08 13:47:42;;;;;;;15.75;4.18;;;11.90;94.10;;;;;;5048096;28;20037;-70
2021/11/08 13:50:14;;;;;;;14.57;4.13;;;11.70;95.10;;;;;;5053938;28;20040;-70
2021/11/08 13:52:41;;;;;;;11.57;4.03;;;11.40;96.00;;;;;;5052185;28;20017;-70
2021/11/08 13:55:13;;;;;;;15.40;4.75;;;11.10;97.30;;;;;;5049168;28;20021;-70
2021/11/08 13:57:42;;;;;;;13.38;4.82;;;10.80;98.20;;;;;;5045229;28;20032;-70
2021/11/08 14:00:14;;;;;;;13.25;4.10;;;10.60;98.90;;;;;;5053511;28;20037;-70
2021/11/08 14:02:41;;;;;;;13.93;2.90;;;10.40;98.90;;;;;;5052989;28;20291;-70
2021/11/08 14:05:09;;;;;;;11.73;3.50;;;10.20;95.30;;;;;;5052560;28;20465;-70
2021/11/08 14:07:35;;;;;;;10.43;2.85;;;10.10;94.80;;;;;;5050355;28;20754;-70
2021/11/08 14:10:02;;;;;;;13.40;3.67;;;9.90;94.70;;;;;;5053618;28;20032;-70
2021/11/08 14:12:31;;;;;;;14.50;3.20;;;9.90;97.40;;;;;;5052340;28;20083;-70
2021/11/08 14:14:58;;;;;;;14.57;3.65;;;9.80;98.10;;;;;;5053452;28;20104;-70
2021/11/08 14:17:30;;;;;;;14.80;3.22;;;9.70;98.90;;;;;;5051799;28;20029;-70
2021/11/08 14:20:05;;;;;;;11.90;3.20;;;9.60;99.30;;;;;;5053340;28;20074;-70
2021/11/08 14:22:33;;;;;;;15.88;3.72;;;9.60;99.50;;;;;;5052632;28;20087;-70
2021/11/08 14:25:02;;;;;;;12.77;3.80;;;9.60;99.40;;;;;;5050654;28;20037;-70
2021/11/08 14:27:30;;;;;;;9.90;3.22;;;9.50;99.90;;;;;;5051872;28;20108;-70
2021/11/08 14:29:57;;;;;;;11.93;3.00;;;9.40;99.10;;;;;;5051319;28;20100;-72
2021/11/08 14:32:26;;;;;;;16.52;3.67;;;9.40;98.40;;;;;;5052659;28;20025;-70
2021/11/08 14:35:05;;;;;;;14.77;3.30;;;9.40;99.50;;;;;;5053667;28;20501;-71